createdAt,value
2023-05-20T00:01:20.215Z,14.18
2023-05-20T00:03:48.297Z,14.28
2023-05-20T00:06:18.046Z,14.31
2023-05-20T00:08:49.939Z,14.21
2023-05-20T00:11:18.457Z,14.16
2023-05-20T00:13:48.895Z,14.15
2023-05-20T00:16:17.299Z,14.17
2023-05-20T00:18:45.589Z,14.24
2023-05-20T00:21:14.255Z,14.31
2023-05-20T00:23:44.304Z,14.31
2023-05-20T00:26:12.521Z,14.37
2023-05-20T00:28:41.371Z,14.26
2023-05-20T00:31:17.930Z,14.24
2023-05-20T00:33:46.327Z,14.28
2023-05-20T00:36:17.265Z,14.32
2023-05-20T00:38:49.666Z,14.29
2023-05-20T00:41:25.854Z,14.28
2023-05-20T00:43:55.969Z,14.28
2023-05-20T00:46:28.922Z,14.27
2023-05-20T00:48:59.218Z,14.32
2023-05-20T00:51:28.618Z,14.26
2023-05-20T00:53:59.098Z,14.26
2023-05-20T00:56:31.728Z,14.26
2023-05-20T00:59:00.193Z,14.24
2023-05-20T01:01:35.832Z,14.26
2023-05-20T01:04:04.868Z,14.26
2023-05-20T01:06:36.232Z,14.29
2023-05-20T01:09:06.055Z,14.27
2023-05-20T01:11:41.443Z,14.24
2023-05-20T01:14:18.964Z,14.25
2023-05-20T01:16:52.165Z,14.22
2023-05-20T01:19:29.811Z,14.26
2023-05-20T01:22:02.546Z,14.28
2023-05-20T01:24:33.884Z,14.24
2023-05-20T01:27:03.063Z,14.23
2023-05-20T01:29:34.222Z,14.24
2023-05-20T01:32:05.001Z,14.21
2023-05-20T01:34:34.880Z,14.21
2023-05-20T01:37:04.431Z,14.17
2023-05-20T01:39:40.515Z,14.24
2023-05-20T01:42:11.269Z,14.21
2023-05-20T01:44:41.867Z,14.25
2023-05-20T01:47:13.324Z,14.28
2023-05-20T01:49:44.598Z,14.31
2023-05-20T01:52:15.409Z,14.25
2023-05-20T01:54:51.206Z,14.20
2023-05-20T01:57:20.565Z,14.15
2023-05-20T01:59:51.064Z,14.23
2023-05-20T02:02:21.326Z,14.21
2023-05-20T02:04:52.934Z,14.14
2023-05-20T02:07:28.785Z,14.11
2023-05-20T02:10:01.305Z,14.18
2023-05-20T02:12:29.341Z,14.11
2023-05-20T02:14:59.582Z,14.11
2023-05-20T02:17:28.864Z,14.09
2023-05-20T02:19:57.078Z,13.99
2023-05-20T02:22:26.541Z,13.98
2023-05-20T02:24:56.794Z,14.01
2023-05-20T02:27:31.843Z,14.06
2023-05-20T02:30:06.135Z,14.07
2023-05-20T02:32:36.872Z,13.99
2023-05-20T02:35:07.033Z,13.93
2023-05-20T02:37:43.619Z,13.84
2023-05-20T02:40:14.584Z,13.80
2023-05-20T02:43:01.471Z,13.82
2023-05-20T02:45:31.835Z,13.88
2023-05-20T02:48:03.542Z,13.79
2023-05-20T02:50:38.308Z,13.68
2023-05-20T02:53:07.076Z,13.70
2023-05-20T02:55:36.592Z,13.69
2023-05-20T02:58:11.552Z,13.72
2023-05-20T03:00:41.566Z,13.68
2023-05-20T03:03:11.369Z,13.63
2023-05-20T03:05:42.461Z,13.57
2023-05-20T03:10:53.011Z,13.58
2023-05-20T03:13:27.035Z,13.65
2023-05-20T03:15:56.550Z,13.64
2023-05-20T03:18:27.528Z,13.63
2023-05-20T03:20:56.364Z,13.64
2023-05-20T03:23:24.506Z,13.63
2023-05-20T03:25:57.630Z,13.59
2023-05-20T03:28:35.027Z,13.54
2023-05-20T03:31:04.475Z,13.58
2023-05-20T03:33:35.369Z,13.63
2023-05-20T03:36:04.445Z,13.62
2023-05-20T03:38:33.570Z,13.56
2023-05-20T03:41:01.903Z,13.52
2023-05-20T03:43:33.022Z,13.52
2023-05-20T03:46:01.834Z,13.49
2023-05-20T03:48:30.736Z,13.41
2023-05-20T03:51:02.482Z,13.44
2023-05-20T03:53:32.401Z,13.44
2023-05-20T03:56:03.355Z,13.41
2023-05-20T03:58:33.131Z,13.37
2023-05-20T04:01:07.390Z,13.40
2023-05-20T04:03:36.091Z,13.37
2023-05-20T04:06:05.967Z,13.37
2023-05-20T04:08:42.181Z,13.28
2023-05-20T04:11:14.130Z,13.27
2023-05-20T04:13:43.248Z,13.31
2023-05-20T04:16:15.423Z,13.23
2023-05-20T04:18:47.468Z,13.24
2023-05-20T04:21:19.250Z,13.18
2023-05-20T04:23:47.823Z,13.14
2023-05-20T04:26:16.381Z,13.19
2023-05-20T04:28:50.010Z,13.28
2023-05-20T04:31:21.249Z,13.28
2023-05-20T04:33:49.270Z,13.28
2023-05-20T04:36:17.809Z,13.29
2023-05-20T04:38:46.318Z,13.40
2023-05-20T04:41:17.341Z,13.38
2023-05-20T04:43:46.428Z,13.38
2023-05-20T04:46:20.486Z,13.49
2023-05-20T04:48:59.818Z,13.43
2023-05-20T04:51:30.491Z,13.44
2023-05-20T04:54:00.055Z,13.48
2023-05-20T04:56:29.404Z,13.50
2023-05-20T04:58:59.032Z,13.56
2023-05-20T05:01:30.560Z,13.60
2023-05-20T05:04:06.006Z,13.68
2023-05-20T05:06:37.500Z,13.82
2023-05-20T05:09:08.455Z,13.75
2023-05-20T05:11:37.055Z,13.81
2023-05-20T05:14:07.472Z,13.70
2023-05-20T05:16:41.895Z,13.81
2023-05-20T05:19:11.790Z,13.93
2023-05-20T05:21:47.334Z,14.01
2023-05-20T05:24:16.882Z,14.13
2023-05-20T05:26:45.352Z,14.24
2023-05-20T05:29:16.322Z,14.25
2023-05-20T05:31:46.478Z,14.16
2023-05-20T05:34:17.339Z,14.34
2023-05-20T05:36:45.429Z,14.52
2023-05-20T05:39:13.460Z,14.53
2023-05-20T05:41:41.235Z,14.38
2023-05-20T05:44:09.256Z,14.41
2023-05-20T05:46:37.457Z,14.36
2023-05-20T05:49:06.599Z,14.38
2023-05-20T05:54:02.215Z,14.73
2023-05-20T05:56:30.255Z,14.80
2023-05-20T05:58:57.939Z,14.78
2023-05-20T06:01:25.779Z,14.77
2023-05-20T06:03:53.975Z,14.76
2023-05-20T06:06:23.296Z,14.86
2023-05-20T06:08:51.228Z,14.95
2023-05-20T06:11:21.857Z,14.97
2023-05-20T06:13:49.624Z,15.20
2023-05-20T06:16:17.624Z,15.28
2023-05-20T06:18:50.273Z,15.50
2023-05-20T06:21:18.525Z,15.39
2023-05-20T06:23:47.577Z,15.57
2023-05-20T06:26:15.362Z,15.75
2023-05-20T06:28:43.192Z,15.81
2023-05-20T06:31:10.990Z,15.80
2023-05-20T06:33:39.914Z,16.08
2023-05-20T06:36:08.556Z,16.06
2023-05-20T06:38:36.382Z,16.18
2023-05-20T06:41:05.902Z,16.13
2023-05-20T06:43:34.165Z,15.93
2023-05-20T06:46:02.056Z,16.23
2023-05-20T06:48:30.028Z,16.34
2023-05-20T06:50:58.352Z,16.27
2023-05-20T06:53:26.222Z,16.43
2023-05-20T06:55:55.638Z,16.38
2023-05-20T06:58:24.770Z,16.64
2023-05-20T07:00:52.520Z,16.78
2023-05-20T07:03:20.277Z,17.25
2023-05-20T07:05:48.093Z,17.25
2023-05-20T07:08:15.782Z,17.22
2023-05-20T07:10:43.649Z,17.67
2023-05-20T07:13:11.702Z,18.30
2023-05-20T07:15:40.829Z,18.43
2023-05-20T07:18:08.621Z,19.58
2023-05-20T07:20:36.488Z,21.19
2023-05-20T07:23:04.506Z,22.74
2023-05-20T07:25:32.476Z,24.53
2023-05-20T07:28:00.664Z,23.66
2023-05-20T07:30:28.649Z,23.98
2023-05-20T07:32:57.817Z,23.04
2023-05-20T07:35:25.660Z,24.94
2023-05-20T07:37:53.459Z,22.95
2023-05-20T07:40:21.442Z,23.52
2023-05-20T07:42:49.410Z,23.01
2023-05-20T07:45:17.532Z,22.13
2023-05-20T07:47:45.402Z,22.87
2023-05-20T07:50:14.627Z,23.91
2023-05-20T07:52:55.019Z,24.95
2023-05-20T07:55:24.543Z,22.73
2023-05-20T07:57:52.305Z,25.23
2023-05-20T08:00:20.690Z,22.75
2023-05-20T08:02:48.697Z,25.55
2023-05-20T08:05:18.028Z,24.60
2023-05-20T08:07:45.801Z,24.41
2023-05-20T08:10:13.625Z,23.24
2023-05-20T08:12:41.625Z,25.14
2023-05-20T08:15:10.139Z,24.36
2023-05-20T08:17:38.805Z,24.29
2023-05-20T08:20:09.881Z,23.31
2023-05-20T08:22:38.983Z,23.02
2023-05-20T08:25:11.079Z,23.63
2023-05-20T08:27:38.953Z,23.71
2023-05-20T08:30:09.890Z,25.04
2023-05-20T08:32:37.851Z,25.65
2023-05-20T08:35:06.734Z,26.72
2023-05-20T08:37:34.445Z,25.53
2023-05-20T08:40:05.112Z,27.83
2023-05-20T08:42:32.821Z,27.33
2023-05-20T08:45:02.084Z,24.15
2023-05-20T08:47:30.075Z,24.85
2023-05-20T08:49:59.448Z,23.55
2023-05-20T08:52:28.077Z,21.33
2023-05-20T08:54:57.651Z,23.15
2023-05-20T08:57:28.109Z,24.98
2023-05-20T08:59:57.327Z,23.43
2023-05-20T09:02:25.090Z,24.45
2023-05-20T09:04:54.064Z,24.72
2023-05-20T09:07:28.697Z,25.04
2023-05-20T09:09:56.482Z,26.79
2023-05-20T09:12:24.279Z,24.82
2023-05-20T09:14:53.726Z,24.48
2023-05-20T09:17:22.633Z,24.64
2023-05-20T09:19:51.126Z,23.08
2023-05-20T09:22:23.619Z,22.82
2023-05-20T09:24:52.331Z,22.08
2023-05-20T09:27:20.366Z,23.29
2023-05-20T09:29:49.716Z,24.39
2023-05-20T09:32:24.046Z,25.61
2023-05-20T09:34:52.086Z,25.10
2023-05-20T09:37:20.580Z,26.31
2023-05-20T09:39:59.666Z,24.87
2023-05-20T09:42:29.715Z,24.65
2023-05-20T09:44:58.334Z,24.33
2023-05-20T09:47:28.969Z,24.24
2023-05-20T09:49:58.388Z,23.52
2023-05-20T09:52:28.220Z,23.03
2023-05-20T09:54:59.040Z,23.13
2023-05-20T09:57:27.198Z,22.49
2023-05-20T09:59:54.990Z,21.99
2023-05-20T10:02:22.852Z,22.54
2023-05-20T10:04:54.489Z,23.46
2023-05-20T10:07:42.380Z,23.35
2023-05-20T10:10:21.586Z,23.47
2023-05-20T10:12:57.070Z,22.38
2023-05-20T10:15:32.091Z,22.25
2023-05-20T10:18:17.322Z,21.73
2023-05-20T10:20:50.891Z,21.41
2023-05-20T10:23:26.356Z,22.49
2023-05-20T10:25:55.240Z,22.43
2023-05-20T10:28:33.691Z,21.85
2023-05-20T10:31:02.373Z,22.25
2023-05-20T10:33:30.981Z,22.37
2023-05-20T10:36:01.460Z,23.73
2023-05-20T10:38:29.585Z,23.59
2023-05-20T10:40:59.777Z,22.72
2023-05-20T10:43:29.362Z,22.07
2023-05-20T10:45:59.428Z,21.85
2023-05-20T10:48:29.942Z,21.79
2023-05-20T10:50:59.915Z,21.81
2023-05-20T10:53:33.546Z,21.67
2023-05-20T10:56:02.962Z,21.67
2023-05-20T10:58:38.404Z,21.37
2023-05-20T11:01:06.303Z,21.91
2023-05-20T11:03:36.158Z,22.22
2023-05-20T11:06:12.644Z,22.83
2023-05-20T11:08:41.703Z,22.61
2023-05-20T11:11:09.675Z,22.72
2023-05-20T11:13:37.384Z,22.35
2023-05-20T11:16:06.952Z,23.08
2023-05-20T11:18:35.279Z,23.31
2023-05-20T11:21:04.199Z,23.15
2023-05-20T11:23:32.102Z,23.84
2023-05-20T11:26:01.383Z,23.03
2023-05-20T11:28:29.180Z,22.65
2023-05-20T11:30:56.923Z,22.79
2023-05-20T11:33:27.665Z,23.52
2023-05-20T11:35:55.933Z,23.35
2023-05-20T11:38:23.710Z,22.99
2023-05-20T11:40:54.013Z,23.59
2023-05-20T11:43:25.353Z,22.79
2023-05-20T11:45:59.789Z,23.05
2023-05-20T11:48:28.270Z,22.68
2023-05-20T11:50:59.416Z,23.33
2023-05-20T11:53:29.204Z,23.06
2023-05-20T11:55:58.620Z,22.43
2023-05-20T11:58:28.770Z,23.12
2023-05-20T12:01:02.328Z,23.50
2023-05-20T12:03:37.441Z,23.05
2023-05-20T12:06:05.670Z,23.75
2023-05-20T12:08:33.441Z,23.17
2023-05-20T12:11:01.341Z,23.40
2023-05-20T12:13:30.432Z,23.42
2023-05-20T12:15:58.355Z,23.02
2023-05-20T12:18:26.373Z,22.51
2023-05-20T12:20:54.349Z,22.91
2023-05-20T12:23:22.461Z,22.62
2023-05-20T12:25:50.928Z,22.53
2023-05-20T12:28:18.879Z,22.79
2023-05-20T12:30:47.965Z,23.35
2023-05-20T12:33:15.789Z,23.16
2023-05-20T12:35:46.076Z,22.64
2023-05-20T12:38:14.170Z,22.48
2023-05-20T12:40:41.949Z,22.84
2023-05-20T12:43:10.384Z,22.71
2023-05-20T12:45:38.123Z,22.69
2023-05-20T12:48:08.164Z,22.76
2023-05-20T12:50:36.389Z,22.71
2023-05-20T12:53:04.417Z,22.49
2023-05-20T12:55:32.188Z,22.32
2023-05-20T12:57:59.988Z,22.44
2023-05-20T13:00:27.773Z,22.62
2023-05-20T13:02:55.676Z,22.55
2023-05-20T13:05:24.826Z,21.93
2023-05-20T13:07:52.578Z,22.04
2023-05-20T13:10:20.310Z,21.86
2023-05-20T13:12:48.120Z,22.10
2023-05-20T13:15:16.141Z,22.46
2023-05-20T13:17:44.016Z,22.41
2023-05-20T13:20:13.029Z,21.98
2023-05-20T13:22:42.229Z,22.02
2023-05-20T13:25:10.808Z,22.10
2023-05-20T13:27:38.628Z,22.22
2023-05-20T13:30:07.543Z,22.13
2023-05-20T13:32:35.734Z,21.93
2023-05-20T13:35:03.580Z,22.12
2023-05-20T13:37:31.461Z,22.05
2023-05-20T13:40:01.087Z,22.05
2023-05-20T13:42:28.891Z,22.28
2023-05-20T13:44:57.103Z,22.31
2023-05-20T13:47:24.953Z,22.50
2023-05-20T13:49:53.330Z,22.51
2023-05-20T13:52:21.450Z,22.65
2023-05-20T13:54:49.507Z,22.27
2023-05-20T13:57:19.005Z,22.38
2023-05-20T13:59:46.893Z,22.59
2023-05-20T14:02:14.820Z,22.81
2023-05-20T14:04:44.981Z,22.84
2023-05-20T14:07:13.147Z,22.87
2023-05-20T14:09:41.022Z,22.70
2023-05-20T14:12:09.363Z,22.54
2023-05-20T14:14:38.817Z,22.49
2023-05-20T14:17:07.882Z,22.44
2023-05-20T14:19:35.776Z,22.41
2023-05-20T14:22:03.937Z,22.35
2023-05-20T14:24:31.751Z,22.22
2023-05-20T14:26:59.565Z,22.52
2023-05-20T14:29:27.742Z,22.32
2023-05-20T14:31:57.171Z,22.55
2023-05-20T14:34:25.342Z,22.42
2023-05-20T14:36:53.333Z,22.60
2023-05-20T14:39:21.229Z,22.84
2023-05-20T14:41:49.077Z,22.81
2023-05-20T14:44:17.150Z,22.88
2023-05-20T14:46:46.694Z,22.85
2023-05-20T14:49:16.162Z,22.87
2023-05-20T14:51:44.038Z,23.06
2023-05-20T14:54:11.887Z,23.03
2023-05-20T14:56:40.686Z,22.97
2023-05-20T14:59:08.522Z,23.07
2023-05-20T15:01:38.184Z,23.20
2023-05-20T15:04:06.621Z,23.32
2023-05-20T15:06:36.569Z,23.27
2023-05-20T15:09:06.546Z,23.45
2023-05-20T15:11:34.412Z,23.33
2023-05-20T15:14:03.780Z,23.53
2023-05-20T15:16:33.911Z,23.64
2023-05-20T15:19:02.072Z,23.39
2023-05-20T15:21:31.206Z,23.29
2023-05-20T15:24:05.723Z,23.48
2023-05-20T15:26:34.378Z,23.52
2023-05-20T15:29:02.588Z,23.67
2023-05-20T15:31:30.607Z,23.49
2023-05-20T15:33:58.725Z,23.55
2023-05-20T15:36:28.366Z,23.48
2023-05-20T15:38:56.183Z,23.41
2023-05-20T15:41:29.515Z,23.30
2023-05-20T15:43:57.568Z,23.38
2023-05-20T15:46:26.333Z,23.23
2023-05-20T15:48:59.167Z,23.12
2023-05-20T15:51:29.304Z,23.20
2023-05-20T15:54:00.152Z,23.09
2023-05-20T15:56:30.398Z,23.13
2023-05-20T15:58:58.527Z,23.11
2023-05-20T16:01:26.993Z,23.12
2023-05-20T16:03:57.773Z,23.06
2023-05-20T16:06:26.065Z,23.07
2023-05-20T16:08:53.786Z,22.97
2023-05-20T16:11:22.923Z,22.95
2023-05-20T16:13:53.697Z,22.90
2023-05-20T16:16:21.667Z,22.94
2023-05-20T16:18:49.671Z,22.79
2023-05-20T16:21:18.948Z,22.77
2023-05-20T16:23:48.148Z,22.77
2023-05-20T16:26:17.646Z,22.78
2023-05-20T16:28:45.562Z,22.76
2023-05-20T16:31:14.953Z,22.75
2023-05-20T16:33:42.857Z,22.76
2023-05-20T16:36:12.069Z,22.76
2023-05-20T16:38:40.423Z,22.71
2023-05-20T16:41:08.222Z,22.61
2023-05-20T16:43:36.193Z,22.65
2023-05-20T16:46:04.096Z,22.67
2023-05-20T16:48:35.252Z,22.64
2023-05-20T16:51:03.138Z,22.60
2023-05-20T16:53:31.055Z,22.62
2023-05-20T16:56:01.682Z,22.60
2023-05-20T16:58:30.033Z,22.62
2023-05-20T17:00:58.310Z,22.76
2023-05-20T17:03:26.872Z,22.65
2023-05-20T17:05:56.584Z,22.65
2023-05-20T17:08:24.494Z,22.65
2023-05-20T17:10:54.142Z,22.66
2023-05-20T17:13:22.379Z,22.63
2023-05-20T17:15:50.505Z,22.65
2023-05-20T17:18:19.348Z,22.60
2023-05-20T17:20:47.423Z,22.57
2023-05-20T17:23:17.760Z,22.64
2023-05-20T17:25:46.410Z,22.65
2023-05-20T17:28:15.728Z,22.67
2023-05-20T17:30:43.809Z,22.53
2023-05-20T17:33:11.796Z,22.57
2023-05-20T17:35:42.554Z,22.48
2023-05-20T17:38:10.749Z,22.49
2023-05-20T17:40:41.108Z,22.44
2023-05-20T17:43:09.383Z,22.44
2023-05-20T17:45:37.296Z,22.41
2023-05-20T17:48:08.865Z,22.40
2023-05-20T17:50:38.864Z,22.36
2023-05-20T17:53:07.066Z,22.35
2023-05-20T17:55:38.674Z,22.32
2023-05-20T17:58:08.392Z,22.34
2023-05-20T18:00:42.260Z,22.30
2023-05-20T18:03:10.561Z,22.20
2023-05-20T18:05:38.551Z,22.18
2023-05-20T18:08:08.070Z,22.12
2023-05-20T18:10:37.468Z,22.07
2023-05-20T18:13:05.689Z,22.05
2023-05-20T18:15:35.921Z,22.01
2023-05-20T18:18:04.410Z,21.94
2023-05-20T18:20:32.883Z,21.91
2023-05-20T18:23:01.684Z,21.87
2023-05-20T18:25:31.924Z,21.85
2023-05-20T18:27:59.834Z,21.76
2023-05-20T18:30:28.017Z,21.73
2023-05-20T18:32:57.527Z,21.76
2023-05-20T18:35:25.623Z,21.69
2023-05-20T18:37:53.531Z,21.66
2023-05-20T18:40:21.570Z,21.57
2023-05-20T18:42:49.381Z,21.54
2023-05-20T18:45:17.963Z,21.49
2023-05-20T18:47:46.117Z,21.43
2023-05-20T18:50:15.713Z,21.40
2023-05-20T18:52:43.666Z,21.38
2023-05-20T18:55:11.536Z,21.30
2023-05-20T18:57:39.624Z,21.27
2023-05-20T19:00:12.308Z,21.21
2023-05-20T19:02:40.753Z,21.16
2023-05-20T19:05:10.777Z,21.17
2023-05-20T19:07:40.399Z,21.06
2023-05-20T19:10:09.785Z,21.02
2023-05-20T19:12:37.851Z,20.97
2023-05-20T19:15:08.073Z,20.93
2023-05-20T19:17:35.888Z,20.96
2023-05-20T19:20:08.278Z,20.85
2023-05-20T19:22:36.156Z,20.83
2023-05-20T19:25:06.259Z,20.75
2023-05-20T19:27:34.337Z,20.75
2023-05-20T19:30:02.299Z,20.71
2023-05-20T19:32:30.583Z,20.63
2023-05-20T19:34:58.448Z,20.64
2023-05-20T19:37:26.194Z,20.59
2023-05-20T19:39:54.523Z,20.54
2023-05-20T19:42:23.937Z,20.50
2023-05-20T19:44:51.864Z,20.47
2023-05-20T19:47:19.917Z,20.42
2023-05-20T19:49:47.813Z,20.40
2023-05-20T19:52:15.887Z,20.40
2023-05-20T19:54:46.294Z,20.31
2023-05-20T19:57:18.589Z,20.26
2023-05-20T19:59:52.231Z,20.23
2023-05-20T20:02:22.295Z,20.21
2023-05-20T20:04:52.178Z,20.11
2023-05-20T20:07:22.687Z,20.08
2023-05-20T20:09:57.109Z,20.10
2023-05-20T20:12:29.533Z,20.04
2023-05-20T20:15:13.826Z,20.00
2023-05-20T20:17:52.896Z,19.95
2023-05-20T20:20:22.251Z,19.93
2023-05-20T20:22:51.217Z,19.91
2023-05-20T20:25:21.100Z,19.90
2023-05-20T20:27:50.297Z,19.84
2023-05-20T20:30:21.551Z,19.79
2023-05-20T20:32:54.346Z,19.78
2023-05-20T20:35:25.782Z,19.77
2023-05-20T20:37:56.882Z,19.75
2023-05-20T20:40:29.301Z,19.69
2023-05-20T20:43:01.266Z,19.68
2023-05-20T20:45:33.778Z,19.67
2023-05-20T20:48:05.443Z,19.64
2023-05-20T20:50:34.664Z,19.60
2023-05-20T20:53:04.451Z,19.57
2023-05-20T20:55:32.683Z,19.54
2023-05-20T20:58:03.592Z,19.52
2023-05-20T21:00:33.778Z,19.52
2023-05-20T21:03:01.666Z,19.42
2023-05-20T21:05:29.621Z,19.42
2023-05-20T21:07:59.839Z,19.36
2023-05-20T21:10:30.013Z,19.34
2023-05-20T21:13:00.402Z,19.27
2023-05-20T21:15:28.857Z,19.27
2023-05-20T21:18:01.498Z,19.20
2023-05-20T21:20:29.786Z,19.19
2023-05-20T21:23:00.868Z,19.14
2023-05-20T21:25:30.935Z,19.11
2023-05-20T21:28:01.182Z,19.06
2023-05-20T21:30:32.605Z,19.07
2023-05-20T21:33:02.997Z,19.07
2023-05-20T21:35:36.118Z,19.02
2023-05-20T21:38:04.614Z,19.00
2023-05-20T21:40:33.015Z,18.98
2023-05-20T21:43:05.814Z,18.92
2023-05-20T21:45:39.354Z,18.93
2023-05-20T21:48:11.566Z,18.92
2023-05-20T21:50:43.626Z,18.85
2023-05-20T21:53:16.484Z,18.85
2023-05-20T21:55:46.723Z,18.83
2023-05-20T21:58:18.660Z,18.75
2023-05-20T22:00:50.695Z,18.73
2023-05-20T22:03:24.193Z,18.69
2023-05-20T22:05:52.676Z,18.67
2023-05-20T22:08:28.455Z,18.67
2023-05-20T22:10:59.796Z,18.63
2023-05-20T22:13:28.214Z,18.60
2023-05-20T22:15:58.023Z,18.62
2023-05-20T22:18:30.417Z,18.60
2023-05-20T22:21:01.012Z,18.59
2023-05-20T22:23:31.849Z,18.61
2023-05-20T22:26:02.329Z,18.59
2023-05-20T22:28:30.445Z,18.54
2023-05-20T22:31:00.327Z,18.53
2023-05-20T22:33:32.390Z,18.55
2023-05-20T22:36:00.537Z,18.50
2023-05-20T22:38:29.700Z,18.46
2023-05-20T22:41:00.442Z,18.47
2023-05-20T22:43:30.369Z,18.47
2023-05-20T22:45:59.028Z,18.47
2023-05-20T22:48:31.688Z,18.41
2023-05-20T22:51:04.031Z,18.44
2023-05-20T22:53:31.786Z,18.42
2023-05-20T22:56:01.119Z,18.37
2023-05-20T22:58:35.444Z,18.32
2023-05-20T23:01:03.955Z,18.31
2023-05-20T23:03:38.086Z,18.32
2023-05-20T23:06:08.840Z,18.33
2023-05-20T23:08:40.520Z,18.32
2023-05-20T23:11:11.701Z,18.27
2023-05-20T23:13:40.499Z,18.24
2023-05-20T23:16:08.522Z,18.24
2023-05-20T23:18:40.217Z,18.21
2023-05-20T23:21:14.698Z,18.16
2023-05-20T23:23:43.403Z,18.17
2023-05-20T23:26:12.331Z,18.17
2023-05-20T23:28:40.904Z,18.19
2023-05-20T23:31:09.266Z,18.16
2023-05-20T23:33:42.397Z,18.15
2023-05-20T23:36:12.503Z,18.15
2023-05-20T23:38:43.878Z,18.15
2023-05-20T23:41:11.746Z,18.14
2023-05-20T23:43:40.060Z,18.15
2023-05-20T23:46:08.993Z,18.13
2023-05-20T23:48:37.238Z,18.13
2023-05-20T23:51:11.848Z,18.15
2023-05-20T23:53:41.474Z,18.16
2023-05-20T23:56:10.073Z,18.10
2023-05-20T23:58:40.690Z,18.09
